Aérodrome :
LOGIN :

S'inscrire | Disclaimer

   EN    FR    IT 

 










Légende :    VFR   VFR Marginal   IFR   IFR Intensif   IFR Très Intensif
Visi : 
Plafond : 
>= 8 km
>= 3000ft
5 à 8 km
1000 à 3000 ft
1500m à 5 km
500 à 1000 ft
800 à 1500m
200 à 500 ft
< 800m
< 200 ft
Symboles :   Orages  Brouillard  Fortes neiges  Fortes précipitations  Vent > 20 kt
SIGMETs :   Divers  Orages  Givrage  Turbulence  Onde Orograph.  Cendres Volcan.







- Altitude de l'aérodrome : 13 ft
- Code IATA : CEQ
- Voir les cartes d'approche


LFMD - Cannes Mandelieu

DERNIER METAR :
  • 211930Z AUTO VRB01KT CAVOK 17/09 Q1012 NOSIG

METARs EXPIRÉS :
  • 211900Z AUTO VRB03KT CAVOK 18/08 Q1011 TEMPO 08015KT
  • 211830Z AUTO VRB05KT CAVOK 18/06 Q1012 TEMPO 08015KT
  • 211800Z AUTO VRB04KT CAVOK 19/05 Q1012 BECMG 08015KT
  • 211730Z AUTO 07007KT 020V140 CAVOK 19/05 Q1012 NOSIG
  • 211700Z AUTO 06007KT 020V110 CAVOK 19/05 Q1012 NOSIG

TAF TAF LFMD
Valide du 21 à 15h jusqu'au 22 à 15h UTC


211400Z 2115/2215 08015KT 9999 BKN100
PROB40
TEMPO 2115/2117 08020G30KT
TEMPO 2120/2206 VRB05KT
TEMPO 2210/2215 08020G40KT
ATIS : +33 4 93 48 73 23
Pas de NOTAMs connus pour ce terrain.
2 SIGMETs publiés pour la FIR Marseille (LFMM) :
 
Turbulence forte
LFMM SIGMET 8 VALID 212000/220000 LFPW
LFMM MARSEILLE FIR/UIR SEV TURB FCST WI N4430 E00700 - N4400 E00700 - N4315 E00945 - N4115 E00945 - N4115 E00800 - N4245 E00800 - N4245 E00545 - N4430 E00700 SFC/FL080 STNR NC=
Turbulence forte
LFMM SIGMET 7 VALID 211600/212000 LFPW
LFMM MARSEILLE FIR/UIR SEV TURB FCST WI N4430 E00700 - N4400 E00700 - N4315 E00945 - N4115 E00945 - N4115 E00800 - N4245 E00830 - N4245 E00545 - N4430 E00615 - N4430 E00700 SFC/FL080 STNR NC=



MET'MAP, la Météo Aéronautique d'un coup d'oeil ! - Copyright ORBIFLY Décembre 2007 - Disclaimer

ORBIFLY MET'MAP TEAM :

Programmation & Développement : Alexandra Zaïnal
Conception & Développement : Baudouin d'Aumeries
Co-Programmation & Développement : Marc-Olivier Méhu
Soutien technique & logistique : Manuel Goepfert

Contact : metmap@orbifly.com




SOURCES & CREDITS :

   NOAA